sensor_id;sensor_type;location;lat;lon;timestamp;P1;durP1;ratioP1;P2;durP2;ratioP2
50531;SDS011;36483;37.396;-122.212;2023-02-28T00:00:18;3.42;;;1.30;;
50531;SDS011;36483;37.396;-122.212;2023-02-28T00:02:45;7.03;;;1.50;;
50531;SDS011;36483;37.396;-122.212;2023-02-28T00:05:13;9.07;;;1.85;;
50531;SDS011;36483;37.396;-122.212;2023-02-28T00:07:41;9.68;;;1.75;;
50531;SDS011;36483;37.396;-122.212;2023-02-28T00:10:08;7.43;;;1.83;;
50531;SDS011;36483;37.396;-122.212;2023-02-28T00:12:36;9.32;;;1.60;;
50531;SDS011;36483;37.396;-122.212;2023-02-28T00:15:07;8.52;;;1.77;;
50531;SDS011;36483;37.396;-122.212;2023-02-28T00:17:34;13.98;;;2.92;;
50531;SDS011;36483;37.396;-122.212;2023-02-28T00:20:01;12.30;;;2.40;;
50531;SDS011;36483;37.396;-122.212;2023-02-28T00:22:28;8.65;;;1.95;;
50531;SDS011;36483;37.396;-122.212;2023-02-28T00:24:54;10.05;;;2.38;;
50531;SDS011;36483;37.396;-122.212;2023-02-28T00:27:20;7.20;;;1.90;;
50531;SDS011;36483;37.396;-122.212;2023-02-28T00:29:47;13.00;;;2.10;;
50531;SDS011;36483;37.396;-122.212;2023-02-28T00:32:13;12.77;;;2.45;;
50531;SDS011;36483;37.396;-122.212;2023-02-28T00:34:39;13.45;;;2.63;;
50531;SDS011;36483;37.396;-122.212;2023-02-28T00:37:06;11.73;;;2.20;;
50531;SDS011;36483;37.396;-122.212;2023-02-28T00:39:33;10.40;;;2.50;;
50531;SDS011;36483;37.396;-122.212;2023-02-28T00:42:00;10.88;;;2.25;;
50531;SDS011;36483;37.396;-122.212;2023-02-28T00:44:27;16.55;;;2.67;;
50531;SDS011;36483;37.396;-122.212;2023-02-28T00:46:53;11.93;;;2.75;;
50531;SDS011;36483;37.396;-122.212;2023-02-28T00:49:20;12.77;;;3.03;;
50531;SDS011;36483;37.396;-122.212;2023-02-28T00:51:46;16.13;;;2.78;;
50531;SDS011;36483;37.396;-122.212;2023-02-28T00:54:13;11.70;;;2.78;;
50531;SDS011;36483;37.396;-122.212;2023-02-28T00:56:39;16.27;;;2.35;;
50531;SDS011;36483;37.396;-122.212;2023-02-28T00:59:05;14.88;;;2.75;;
50531;SDS011;36483;37.396;-122.212;2023-02-28T01:01:31;15.48;;;2.75;;
50531;SDS011;36483;37.396;-122.212;2023-02-28T01:03:58;15.07;;;2.50;;
50531;SDS011;36483;37.396;-122.212;2023-02-28T01:06:24;9.43;;;2.25;;
50531;SDS011;36483;37.396;-122.212;2023-02-28T01:08:50;13.45;;;2.65;;
50531;SDS011;36483;37.396;-122.212;2023-02-28T01:11:17;15.52;;;2.47;;
50531;SDS011;36483;37.396;-122.212;2023-02-28T01:13:44;10.88;;;2.58;;
50531;SDS011;36483;37.396;-122.212;2023-02-28T01:16:11;5.93;;;1.83;;
50531;SDS011;36483;37.396;-122.212;2023-02-28T01:18:38;7.07;;;1.95;;
50531;SDS011;36483;37.396;-122.212;2023-02-28T01:21:05;8.70;;;1.90;;
50531;SDS011;36483;37.396;-122.212;2023-02-28T01:23:33;13.35;;;2.45;;
50531;SDS011;36483;37.396;-122.212;2023-02-28T01:26:09;10.90;;;2.45;;
50531;SDS011;36483;37.396;-122.212;2023-02-28T01:28:37;9.00;;;2.03;;
50531;SDS011;36483;37.396;-122.212;2023-02-28T01:31:03;10.00;;;2.30;;
50531;SDS011;36483;37.396;-122.212;2023-02-28T01:33:29;7.72;;;1.90;;
50531;SDS011;36483;37.396;-122.212;2023-02-28T01:36:02;11.05;;;2.25;;
50531;SDS011;36483;37.396;-122.212;2023-02-28T01:38:33;7.53;;;1.80;;
50531;SDS011;36483;37.396;-122.212;2023-02-28T01:40:59;8.77;;;2.20;;
50531;SDS011;36483;37.396;-122.212;2023-02-28T01:43:27;13.02;;;2.58;;
50531;SDS011;36483;37.396;-122.212;2023-02-28T01:45:55;11.25;;;2.60;;
50531;SDS011;36483;37.396;-122.212;2023-02-28T01:48:26;7.57;;;2.55;;
50531;SDS011;36483;37.396;-122.212;2023-02-28T01:50:57;11.70;;;2.10;;
50531;SDS011;36483;37.396;-122.212;2023-02-28T01:53:29;11.98;;;1.88;;
50531;SDS011;36483;37.396;-122.212;2023-02-28T01:56:02;11.90;;;2.15;;
50531;SDS011;36483;37.396;-122.212;2023-02-28T01:58:30;9.40;;;2.17;;
50531;SDS011;36483;37.396;-122.212;2023-02-28T02:00:56;10.60;;;2.50;;
50531;SDS011;36483;37.396;-122.212;2023-02-28T02:03:22;8.85;;;2.58;;
50531;SDS011;36483;37.396;-122.212;2023-02-28T02:05:49;7.90;;;2.25;;
50531;SDS011;36483;37.396;-122.212;2023-02-28T02:08:22;8.85;;;2.30;;
50531;SDS011;36483;37.396;-122.212;2023-02-28T02:10:50;7.55;;;1.77;;
50531;SDS011;36483;37.396;-122.212;2023-02-28T02:13:22;9.57;;;2.33;;
50531;SDS011;36483;37.396;-122.212;2023-02-28T02:32:29;12.60;;;2.80;;
50531;SDS011;36483;37.396;-122.212;2023-02-28T02:40:43;10.48;;;2.30;;
50531;SDS011;36483;37.396;-122.212;2023-02-28T02:43:19;10.23;;;2.42;;
50531;SDS011;36483;37.396;-122.212;2023-02-28T02:45:55;11.48;;;1.98;;
50531;SDS011;36483;37.396;-122.212;2023-02-28T02:48:25;12.90;;;2.33;;
50531;SDS011;36483;37.396;-122.212;2023-02-28T02:51:00;12.65;;;2.55;;
50531;SDS011;36483;37.396;-122.212;2023-02-28T02:53:29;7.72;;;2.00;;
50531;SDS011;36483;37.396;-122.212;2023-02-28T02:55:58;10.10;;;2.33;;
50531;SDS011;36483;37.396;-122.212;2023-02-28T02:58:26;12.35;;;2.40;;
50531;SDS011;36483;37.396;-122.212;2023-02-28T03:00:55;10.32;;;2.15;;
50531;SDS011;36483;37.396;-122.212;2023-02-28T03:03:24;11.80;;;2.70;;
50531;SDS011;36483;37.396;-122.212;2023-02-28T03:05:57;8.82;;;2.10;;
50531;SDS011;36483;37.396;-122.212;2023-02-28T03:08:25;8.30;;;2.65;;
50531;SDS011;36483;37.396;-122.212;2023-02-28T03:10:55;9.65;;;2.63;;
50531;SDS011;36483;37.396;-122.212;2023-02-28T03:16:28;6.53;;;2.05;;
50531;SDS011;36483;37.396;-122.212;2023-02-28T03:22:12;6.43;;;2.42;;
50531;SDS011;36483;37.396;-122.212;2023-02-28T03:25:06;7.43;;;2.20;;
50531;SDS011;36483;37.396;-122.212;2023-02-28T03:27:30;10.18;;;2.85;;
50531;SDS011;36483;37.396;-122.212;2023-02-28T03:33:13;8.98;;;3.88;;
50531;SDS011;36483;37.396;-122.212;2023-02-28T03:36:01;11.43;;;3.80;;
50531;SDS011;36483;37.396;-122.212;2023-02-28T03:41:19;11.98;;;3.13;;
50531;SDS011;36483;37.396;-122.212;2023-02-28T03:43:49;5.95;;;1.95;;
50531;SDS011;36483;37.396;-122.212;2023-02-28T03:46:21;10.50;;;2.13;;
50531;SDS011;36483;37.396;-122.212;2023-02-28T03:51:22;10.07;;;2.60;;
50531;SDS011;36483;37.396;-122.212;2023-02-28T03:53:52;10.55;;;2.50;;
50531;SDS011;36483;37.396;-122.212;2023-02-28T03:56:22;12.60;;;2.65;;
50531;SDS011;36483;37.396;-122.212;2023-02-28T04:01:32;11.15;;;3.08;;
50531;SDS011;36483;37.396;-122.212;2023-02-28T04:04:17;9.65;;;3.08;;
50531;SDS011;36483;37.396;-122.212;2023-02-28T04:06:44;7.40;;;2.50;;
50531;SDS011;36483;37.396;-122.212;2023-02-28T04:09:11;7.28;;;2.90;;
50531;SDS011;36483;37.396;-122.212;2023-02-28T04:11:40;10.35;;;2.88;;
50531;SDS011;36483;37.396;-122.212;2023-02-28T04:16:37;6.47;;;2.65;;
50531;SDS011;36483;37.396;-122.212;2023-02-28T04:19:06;8.43;;;3.05;;
50531;SDS011;36483;37.396;-122.212;2023-02-28T04:21:34;6.03;;;2.63;;
50531;SDS011;36483;37.396;-122.212;2023-02-28T04:24:04;9.88;;;3.33;;
50531;SDS011;36483;37.396;-122.212;2023-02-28T04:26:31;12.73;;;3.35;;
50531;SDS011;36483;37.396;-122.212;2023-02-28T04:28:59;15.23;;;3.67;;
50531;SDS011;36483;37.396;-122.212;2023-02-28T04:31:25;9.98;;;3.10;;
50531;SDS011;36483;37.396;-122.212;2023-02-28T04:33:51;10.45;;;2.80;;
50531;SDS011;36483;37.396;-122.212;2023-02-28T04:36:18;8.00;;;2.85;;
50531;SDS011;36483;37.396;-122.212;2023-02-28T04:38:44;8.13;;;3.00;;
50531;SDS011;36483;37.396;-122.212;2023-02-28T04:41:11;9.90;;;3.08;;
50531;SDS011;36483;37.396;-122.212;2023-02-28T04:43:38;9.48;;;3.00;;
50531;SDS011;36483;37.396;-122.212;2023-02-28T04:46:05;7.70;;;2.88;;
50531;SDS011;36483;37.396;-122.212;2023-02-28T04:48:32;13.23;;;3.22;;
50531;SDS011;36483;37.396;-122.212;2023-02-28T04:51:00;6.82;;;2.70;;
50531;SDS011;36483;37.396;-122.212;2023-02-28T04:53:27;8.02;;;2.63;;
50531;SDS011;36483;37.396;-122.212;2023-02-28T04:55:54;10.70;;;2.80;;
50531;SDS011;36483;37.396;-122.212;2023-02-28T04:58:21;9.23;;;2.70;;
50531;SDS011;36483;37.396;-122.212;2023-02-28T05:00:51;8.50;;;2.95;;
50531;SDS011;36483;37.396;-122.212;2023-02-28T05:03:17;9.80;;;3.00;;
50531;SDS011;36483;37.396;-122.212;2023-02-28T05:05:44;9.05;;;3.15;;
50531;SDS011;36483;37.396;-122.212;2023-02-28T05:08:10;11.25;;;3.40;;
50531;SDS011;36483;37.396;-122.212;2023-02-28T05:10:36;6.85;;;2.70;;
50531;SDS011;36483;37.396;-122.212;2023-02-28T05:13:02;9.75;;;3.13;;
50531;SDS011;36483;37.396;-122.212;2023-02-28T05:15:28;11.57;;;3.58;;
50531;SDS011;36483;37.396;-122.212;2023-02-28T05:17:54;13.32;;;4.15;;
50531;SDS011;36483;37.396;-122.212;2023-02-28T05:20:21;12.60;;;4.60;;
50531;SDS011;36483;37.396;-122.212;2023-02-28T05:22:47;9.13;;;3.20;;
50531;SDS011;36483;37.396;-122.212;2023-02-28T05:25:16;8.93;;;3.33;;
50531;SDS011;36483;37.396;-122.212;2023-02-28T05:27:43;9.00;;;3.20;;
50531;SDS011;36483;37.396;-122.212;2023-02-28T05:30:09;12.35;;;3.50;;
50531;SDS011;36483;37.396;-122.212;2023-02-28T05:32:39;8.38;;;3.33;;
50531;SDS011;36483;37.396;-122.212;2023-02-28T05:35:10;14.38;;;3.85;;
50531;SDS011;36483;37.396;-122.212;2023-02-28T05:37:37;10.23;;;3.30;;
50531;SDS011;36483;37.396;-122.212;2023-02-28T05:40:04;13.25;;;3.30;;
50531;SDS011;36483;37.396;-122.212;2023-02-28T05:42:32;9.85;;;3.22;;
50531;SDS011;36483;37.396;-122.212;2023-02-28T05:44:58;6.30;;;2.97;;
50531;SDS011;36483;37.396;-122.212;2023-02-28T05:47:25;9.38;;;2.80;;
50531;SDS011;36483;37.396;-122.212;2023-02-28T05:49:51;10.18;;;3.10;;
50531;SDS011;36483;37.396;-122.212;2023-02-28T05:52:17;11.73;;;3.47;;
50531;SDS011;36483;37.396;-122.212;2023-02-28T05:54:43;13.32;;;3.40;;
50531;SDS011;36483;37.396;-122.212;2023-02-28T05:57:09;8.23;;;3.20;;
50531;SDS011;36483;37.396;-122.212;2023-02-28T05:59:35;9.20;;;3.15;;
50531;SDS011;36483;37.396;-122.212;2023-02-28T06:02:05;8.95;;;3.25;;
50531;SDS011;36483;37.396;-122.212;2023-02-28T06:04:34;9.02;;;2.63;;
50531;SDS011;36483;37.396;-122.212;2023-02-28T06:07:00;10.05;;;2.90;;
50531;SDS011;36483;37.396;-122.212;2023-02-28T06:09:26;9.95;;;2.97;;
50531;SDS011;36483;37.396;-122.212;2023-02-28T06:11:53;7.80;;;2.90;;
50531;SDS011;36483;37.396;-122.212;2023-02-28T06:14:19;11.60;;;3.35;;
50531;SDS011;36483;37.396;-122.212;2023-02-28T06:16:46;8.93;;;3.05;;
50531;SDS011;36483;37.396;-122.212;2023-02-28T06:19:12;7.30;;;2.25;;
50531;SDS011;36483;37.396;-122.212;2023-02-28T06:21:38;8.15;;;2.20;;
50531;SDS011;36483;37.396;-122.212;2023-02-28T06:24:05;8.43;;;2.00;;
50531;SDS011;36483;37.396;-122.212;2023-02-28T06:26:31;5.07;;;1.70;;
50531;SDS011;36483;37.396;-122.212;2023-02-28T06:28:57;4.80;;;1.60;;
50531;SDS011;36483;37.396;-122.212;2023-02-28T06:31:23;6.05;;;1.65;;
50531;SDS011;36483;37.396;-122.212;2023-02-28T06:33:51;6.63;;;1.70;;
50531;SDS011;36483;37.396;-122.212;2023-02-28T06:36:17;6.80;;;1.40;;
50531;SDS011;36483;37.396;-122.212;2023-02-28T06:38:44;6.40;;;1.40;;
50531;SDS011;36483;37.396;-122.212;2023-02-28T06:41:10;8.48;;;1.40;;
50531;SDS011;36483;37.396;-122.212;2023-02-28T06:43:38;4.13;;;1.40;;
50531;SDS011;36483;37.396;-122.212;2023-02-28T06:46:07;3.75;;;1.60;;
50531;SDS011;36483;37.396;-122.212;2023-02-28T06:48:34;6.50;;;1.25;;
50531;SDS011;36483;37.396;-122.212;2023-02-28T06:51:11;4.50;;;1.27;;
50531;SDS011;36483;37.396;-122.212;2023-02-28T06:53:39;5.80;;;1.00;;
50531;SDS011;36483;37.396;-122.212;2023-02-28T06:56:09;2.55;;;1.10;;
50531;SDS011;36483;37.396;-122.212;2023-02-28T06:58:40;4.25;;;1.38;;
50531;SDS011;36483;37.396;-122.212;2023-02-28T07:01:07;3.00;;;0.98;;
50531;SDS011;36483;37.396;-122.212;2023-02-28T07:03:36;3.15;;;1.10;;
50531;SDS011;36483;37.396;-122.212;2023-02-28T07:06:04;5.15;;;1.10;;
50531;SDS011;36483;37.396;-122.212;2023-02-28T07:08:30;4.00;;;1.10;;
50531;SDS011;36483;37.396;-122.212;2023-02-28T07:10:57;5.75;;;1.20;;
50531;SDS011;36483;37.396;-122.212;2023-02-28T07:13:23;2.85;;;0.90;;
50531;SDS011;36483;37.396;-122.212;2023-02-28T07:15:53;4.55;;;1.10;;
50531;SDS011;36483;37.396;-122.212;2023-02-28T07:18:20;2.03;;;0.88;;
50531;SDS011;36483;37.396;-122.212;2023-02-28T07:20:46;3.42;;;1.13;;
50531;SDS011;36483;37.396;-122.212;2023-02-28T07:23:13;3.40;;;1.17;;
50531;SDS011;36483;37.396;-122.212;2023-02-28T07:25:39;3.35;;;1.00;;
50531;SDS011;36483;37.396;-122.212;2023-02-28T07:28:05;3.80;;;1.10;;
50531;SDS011;36483;37.396;-122.212;2023-02-28T07:30:31;3.55;;;1.10;;
50531;SDS011;36483;37.396;-122.212;2023-02-28T07:32:57;4.18;;;1.10;;
50531;SDS011;36483;37.396;-122.212;2023-02-28T07:35:23;5.38;;;1.50;;
50531;SDS011;36483;37.396;-122.212;2023-02-28T07:37:49;3.90;;;1.30;;
50531;SDS011;36483;37.396;-122.212;2023-02-28T07:40:16;3.38;;;1.08;;
50531;SDS011;36483;37.396;-122.212;2023-02-28T07:42:43;3.97;;;1.00;;
50531;SDS011;36483;37.396;-122.212;2023-02-28T07:45:10;4.35;;;1.27;;
50531;SDS011;36483;37.396;-122.212;2023-02-28T07:47:37;4.20;;;1.00;;
50531;SDS011;36483;37.396;-122.212;2023-02-28T07:50:05;2.53;;;1.00;;
50531;SDS011;36483;37.396;-122.212;2023-02-28T07:52:32;4.40;;;1.10;;
50531;SDS011;36483;37.396;-122.212;2023-02-28T07:54:58;3.97;;;1.00;;
50531;SDS011;36483;37.396;-122.212;2023-02-28T07:57:24;2.67;;;1.30;;
50531;SDS011;36483;37.396;-122.212;2023-02-28T07:59:51;5.18;;;1.10;;
50531;SDS011;36483;37.396;-122.212;2023-02-28T08:02:17;4.57;;;1.20;;
50531;SDS011;36483;37.396;-122.212;2023-02-28T08:04:44;4.00;;;1.17;;
50531;SDS011;36483;37.396;-122.212;2023-02-28T08:07:14;4.50;;;1.23;;
50531;SDS011;36483;37.396;-122.212;2023-02-28T08:09:41;3.60;;;1.30;;
50531;SDS011;36483;37.396;-122.212;2023-02-28T08:12:08;5.95;;;0.98;;
50531;SDS011;36483;37.396;-122.212;2023-02-28T08:14:35;2.40;;;1.10;;
50531;SDS011;36483;37.396;-122.212;2023-02-28T08:17:02;4.25;;;1.42;;
50531;SDS011;36483;37.396;-122.212;2023-02-28T08:19:28;4.72;;;2.40;;
50531;SDS011;36483;37.396;-122.212;2023-02-28T08:21:55;5.20;;;1.45;;
50531;SDS011;36483;37.396;-122.212;2023-02-28T08:24:22;4.22;;;1.20;;
50531;SDS011;36483;37.396;-122.212;2023-02-28T08:26:49;2.75;;;1.23;;
50531;SDS011;36483;37.396;-122.212;2023-02-28T08:29:15;4.35;;;1.23;;
50531;SDS011;36483;37.396;-122.212;2023-02-28T08:31:42;2.92;;;1.20;;
50531;SDS011;36483;37.396;-122.212;2023-02-28T08:34:09;2.75;;;1.20;;
50531;SDS011;36483;37.396;-122.212;2023-02-28T08:36:37;5.07;;;1.67;;
50531;SDS011;36483;37.396;-122.212;2023-02-28T08:39:04;7.30;;;2.70;;
50531;SDS011;36483;37.396;-122.212;2023-02-28T08:41:30;4.15;;;1.63;;
50531;SDS011;36483;37.396;-122.212;2023-02-28T08:43:56;5.00;;;1.80;;
50531;SDS011;36483;37.396;-122.212;2023-02-28T08:46:23;3.45;;;1.30;;
50531;SDS011;36483;37.396;-122.212;2023-02-28T08:48:53;4.40;;;1.30;;
50531;SDS011;36483;37.396;-122.212;2023-02-28T08:51:20;4.32;;;1.40;;
50531;SDS011;36483;37.396;-122.212;2023-02-28T08:53:51;4.00;;;1.42;;
50531;SDS011;36483;37.396;-122.212;2023-02-28T08:56:19;4.35;;;1.40;;
50531;SDS011;36483;37.396;-122.212;2023-02-28T08:58:46;4.55;;;1.30;;
50531;SDS011;36483;37.396;-122.212;2023-02-28T09:01:16;3.47;;;1.30;;
50531;SDS011;36483;37.396;-122.212;2023-02-28T09:03:44;3.70;;;1.40;;
50531;SDS011;36483;37.396;-122.212;2023-02-28T09:06:11;5.47;;;1.42;;
50531;SDS011;36483;37.396;-122.212;2023-02-28T09:08:38;4.70;;;1.40;;
50531;SDS011;36483;37.396;-122.212;2023-02-28T09:11:05;3.95;;;1.20;;
50531;SDS011;36483;37.396;-122.212;2023-02-28T09:13:31;4.82;;;1.60;;
50531;SDS011;36483;37.396;-122.212;2023-02-28T09:15:58;4.18;;;1.50;;
50531;SDS011;36483;37.396;-122.212;2023-02-28T09:18:25;5.38;;;1.67;;
50531;SDS011;36483;37.396;-122.212;2023-02-28T09:20:52;5.47;;;1.90;;
50531;SDS011;36483;37.396;-122.212;2023-02-28T09:23:18;4.80;;;1.90;;
50531;SDS011;36483;37.396;-122.212;2023-02-28T09:25:45;7.00;;;2.30;;
50531;SDS011;36483;37.396;-122.212;2023-02-28T09:28:16;4.72;;;2.15;;
50531;SDS011;36483;37.396;-122.212;2023-02-28T09:30:46;4.53;;;1.88;;
50531;SDS011;36483;37.396;-122.212;2023-02-28T09:33:14;6.65;;;2.30;;
50531;SDS011;36483;37.396;-122.212;2023-02-28T09:35:40;5.88;;;2.55;;
50531;SDS011;36483;37.396;-122.212;2023-02-28T09:38:08;4.85;;;2.00;;
50531;SDS011;36483;37.396;-122.212;2023-02-28T09:40:36;5.93;;;2.70;;
50531;SDS011;36483;37.396;-122.212;2023-02-28T09:43:15;3.85;;;1.98;;
50531;SDS011;36483;37.396;-122.212;2023-02-28T09:45:44;10.73;;;2.22;;
50531;SDS011;36483;37.396;-122.212;2023-02-28T09:48:20;8.20;;;2.45;;
50531;SDS011;36483;37.396;-122.212;2023-02-28T09:50:53;6.25;;;2.30;;
50531;SDS011;36483;37.396;-122.212;2023-02-28T09:53:29;5.88;;;2.42;;
50531;SDS011;36483;37.396;-122.212;2023-02-28T09:56:03;5.72;;;2.10;;
50531;SDS011;36483;37.396;-122.212;2023-02-28T10:01:51;5.55;;;2.08;;
50531;SDS011;36483;37.396;-122.212;2023-02-28T10:04:28;6.03;;;2.20;;
50531;SDS011;36483;37.396;-122.212;2023-02-28T10:06:58;10.18;;;2.20;;
50531;SDS011;36483;37.396;-122.212;2023-02-28T10:09:26;6.32;;;2.42;;
50531;SDS011;36483;37.396;-122.212;2023-02-28T10:11:54;7.95;;;2.55;;
50531;SDS011;36483;37.396;-122.212;2023-02-28T10:14:24;5.00;;;2.17;;
50531;SDS011;36483;37.396;-122.212;2023-02-28T10:16:52;6.45;;;2.20;;
50531;SDS011;36483;37.396;-122.212;2023-02-28T10:19:28;5.55;;;2.00;;
50531;SDS011;36483;37.396;-122.212;2023-02-28T10:22:01;6.35;;;1.92;;
50531;SDS011;36483;37.396;-122.212;2023-02-28T10:24:44;5.85;;;2.35;;
50531;SDS011;36483;37.396;-122.212;2023-02-28T10:29:59;7.15;;;2.72;;
50531;SDS011;36483;37.396;-122.212;2023-02-28T10:32:31;6.18;;;2.08;;
50531;SDS011;36483;37.396;-122.212;2023-02-28T10:37:47;7.20;;;2.60;;
50531;SDS011;36483;37.396;-122.212;2023-02-28T10:45:29;6.30;;;2.30;;
50531;SDS011;36483;37.396;-122.212;2023-02-28T10:47:59;8.38;;;2.55;;
50531;SDS011;36483;37.396;-122.212;2023-02-28T10:55:45;7.50;;;2.38;;
50531;SDS011;36483;37.396;-122.212;2023-02-28T10:58:22;7.57;;;2.22;;
50531;SDS011;36483;37.396;-122.212;2023-02-28T11:00:50;4.40;;;2.00;;
50531;SDS011;36483;37.396;-122.212;2023-02-28T11:03:31;6.75;;;2.50;;
50531;SDS011;36483;37.396;-122.212;2023-02-28T11:06:03;4.53;;;2.10;;
50531;SDS011;36483;37.396;-122.212;2023-02-28T11:08:33;5.65;;;2.20;;
50531;SDS011;36483;37.396;-122.212;2023-02-28T11:11:09;4.93;;;2.00;;
50531;SDS011;36483;37.396;-122.212;2023-02-28T11:13:35;5.78;;;2.10;;
50531;SDS011;36483;37.396;-122.212;2023-02-28T11:16:05;5.43;;;1.70;;
50531;SDS011;36483;37.396;-122.212;2023-02-28T11:18:36;5.90;;;1.88;;
50531;SDS011;36483;37.396;-122.212;2023-02-28T11:21:33;6.88;;;2.00;;
50531;SDS011;36483;37.396;-122.212;2023-02-28T11:26:47;6.28;;;1.65;;
50531;SDS011;36483;37.396;-122.212;2023-02-28T11:29:21;5.10;;;1.73;;
50531;SDS011;36483;37.396;-122.212;2023-02-28T11:34:28;8.23;;;1.90;;
50531;SDS011;36483;37.396;-122.212;2023-02-28T11:36:56;6.35;;;1.90;;
50531;SDS011;36483;37.396;-122.212;2023-02-28T11:39:23;6.85;;;1.75;;
50531;SDS011;36483;37.396;-122.212;2023-02-28T11:53:00;10.70;;;1.80;;
50531;SDS011;36483;37.396;-122.212;2023-02-28T11:58:29;10.00;;;2.60;;
50531;SDS011;36483;37.396;-122.212;2023-02-28T12:06:54;6.05;;;2.00;;
50531;SDS011;36483;37.396;-122.212;2023-02-28T12:28:20;12.32;;;2.25;;
50531;SDS011;36483;37.396;-122.212;2023-02-28T12:31:36;7.50;;;1.58;;
50531;SDS011;36483;37.396;-122.212;2023-02-28T12:33:56;4.38;;;1.50;;
50531;SDS011;36483;37.396;-122.212;2023-02-28T12:36:29;7.32;;;1.50;;
50531;SDS011;36483;37.396;-122.212;2023-02-28T12:39:08;7.18;;;2.10;;
50531;SDS011;36483;37.396;-122.212;2023-02-28T12:42:27;9.02;;;1.63;;
50531;SDS011;36483;37.396;-122.212;2023-02-28T12:44:47;6.13;;;1.88;;
50531;SDS011;36483;37.396;-122.212;2023-02-28T12:47:17;4.50;;;1.50;;
50531;SDS011;36483;37.396;-122.212;2023-02-28T12:49:57;5.65;;;1.60;;
50531;SDS011;36483;37.396;-122.212;2023-02-28T13:00:35;8.10;;;1.88;;
50531;SDS011;36483;37.396;-122.212;2023-02-28T13:08:59;7.50;;;2.60;;
50531;SDS011;36483;37.396;-122.212;2023-02-28T13:11:38;8.20;;;2.03;;
50531;SDS011;36483;37.396;-122.212;2023-02-28T13:14:06;6.95;;;2.20;;
50531;SDS011;36483;37.396;-122.212;2023-02-28T13:22:16;5.07;;;1.40;;
50531;SDS011;36483;37.396;-122.212;2023-02-28T13:25:13;12.75;;;1.70;;
50531;SDS011;36483;37.396;-122.212;2023-02-28T13:27:49;3.90;;;1.63;;
50531;SDS011;36483;37.396;-122.212;2023-02-28T13:33:31;7.05;;;1.50;;
50531;SDS011;36483;37.396;-122.212;2023-02-28T13:38:35;7.25;;;1.63;;
50531;SDS011;36483;37.396;-122.212;2023-02-28T13:44:05;8.63;;;2.45;;
50531;SDS011;36483;37.396;-122.212;2023-02-28T13:51:51;8.52;;;1.98;;
50531;SDS011;36483;37.396;-122.212;2023-02-28T14:05:20;8.90;;;1.90;;
50531;SDS011;36483;37.396;-122.212;2023-02-28T14:07:56;6.50;;;1.95;;
50531;SDS011;36483;37.396;-122.212;2023-02-28T14:10:24;9.27;;;2.20;;
50531;SDS011;36483;37.396;-122.212;2023-02-28T14:12:57;7.70;;;2.00;;
50531;SDS011;36483;37.396;-122.212;2023-02-28T14:15:36;9.43;;;2.33;;
50531;SDS011;36483;37.396;-122.212;2023-02-28T14:24:13;6.07;;;1.65;;
50531;SDS011;36483;37.396;-122.212;2023-02-28T14:27:03;8.40;;;1.90;;
50531;SDS011;36483;37.396;-122.212;2023-02-28T14:32:37;6.32;;;1.67;;
50531;SDS011;36483;37.396;-122.212;2023-02-28T14:38:06;7.80;;;2.53;;
50531;SDS011;36483;37.396;-122.212;2023-02-28T14:40:37;9.23;;;2.00;;
50531;SDS011;36483;37.396;-122.212;2023-02-28T14:43:05;7.85;;;2.00;;
50531;SDS011;36483;37.396;-122.212;2023-02-28T14:45:41;5.65;;;1.77;;
50531;SDS011;36483;37.396;-122.212;2023-02-28T14:48:10;8.77;;;1.90;;
50531;SDS011;36483;37.396;-122.212;2023-02-28T14:50:37;10.23;;;2.15;;
50531;SDS011;36483;37.396;-122.212;2023-02-28T14:53:03;12.13;;;2.42;;
50531;SDS011;36483;37.396;-122.212;2023-02-28T14:55:30;8.00;;;2.25;;
50531;SDS011;36483;37.396;-122.212;2023-02-28T14:57:59;10.45;;;2.30;;
50531;SDS011;36483;37.396;-122.212;2023-02-28T15:00:32;10.80;;;2.20;;
50531;SDS011;36483;37.396;-122.212;2023-02-28T15:03:27;12.77;;;2.10;;
50531;SDS011;36483;37.396;-122.212;2023-02-28T15:05:57;10.68;;;2.08;;
50531;SDS011;36483;37.396;-122.212;2023-02-28T15:08:25;6.38;;;1.85;;
50531;SDS011;36483;37.396;-122.212;2023-02-28T15:13:43;8.70;;;2.25;;
50531;SDS011;36483;37.396;-122.212;2023-02-28T15:16:12;9.85;;;2.15;;
50531;SDS011;36483;37.396;-122.212;2023-02-28T15:24:18;7.38;;;1.80;;
50531;SDS011;36483;37.396;-122.212;2023-02-28T15:26:54;7.30;;;1.95;;
50531;SDS011;36483;37.396;-122.212;2023-02-28T15:29:23;8.25;;;1.90;;
50531;SDS011;36483;37.396;-122.212;2023-02-28T15:31:55;10.05;;;2.28;;
50531;SDS011;36483;37.396;-122.212;2023-02-28T15:34:41;8.60;;;1.90;;
50531;SDS011;36483;37.396;-122.212;2023-02-28T15:40:15;10.85;;;1.98;;
50531;SDS011;36483;37.396;-122.212;2023-02-28T15:45:49;7.65;;;2.20;;
50531;SDS011;36483;37.396;-122.212;2023-02-28T15:48:18;11.05;;;1.98;;
50531;SDS011;36483;37.396;-122.212;2023-02-28T15:50:53;9.43;;;2.08;;
50531;SDS011;36483;37.396;-122.212;2023-02-28T15:53:28;9.40;;;2.33;;
50531;SDS011;36483;37.396;-122.212;2023-02-28T15:56:01;6.40;;;1.92;;
50531;SDS011;36483;37.396;-122.212;2023-02-28T15:58:29;6.60;;;1.83;;
50531;SDS011;36483;37.396;-122.212;2023-02-28T16:01:16;8.10;;;1.60;;
50531;SDS011;36483;37.396;-122.212;2023-02-28T16:03:48;8.05;;;1.90;;
50531;SDS011;36483;37.396;-122.212;2023-02-28T16:08:42;8.75;;;2.10;;
50531;SDS011;36483;37.396;-122.212;2023-02-28T16:11:09;8.23;;;2.03;;
50531;SDS011;36483;37.396;-122.212;2023-02-28T16:13:36;8.48;;;1.80;;
50531;SDS011;36483;37.396;-122.212;2023-02-28T16:16:02;9.90;;;2.08;;
50531;SDS011;36483;37.396;-122.212;2023-02-28T16:18:28;9.02;;;2.42;;
50531;SDS011;36483;37.396;-122.212;2023-02-28T16:20:54;10.95;;;2.10;;
50531;SDS011;36483;37.396;-122.212;2023-02-28T16:23:21;10.10;;;1.90;;
50531;SDS011;36483;37.396;-122.212;2023-02-28T16:25:47;8.25;;;1.92;;
50531;SDS011;36483;37.396;-122.212;2023-02-28T16:28:20;11.60;;;1.67;;
50531;SDS011;36483;37.396;-122.212;2023-02-28T16:30:53;6.10;;;1.80;;
50531;SDS011;36483;37.396;-122.212;2023-02-28T16:33:19;12.40;;;2.10;;
50531;SDS011;36483;37.396;-122.212;2023-02-28T16:35:45;5.95;;;1.38;;
50531;SDS011;36483;37.396;-122.212;2023-02-28T16:38:11;7.25;;;1.63;;
50531;SDS011;36483;37.396;-122.212;2023-02-28T16:40:38;16.83;;;2.60;;
50531;SDS011;36483;37.396;-122.212;2023-02-28T16:43:07;13.07;;;2.20;;
50531;SDS011;36483;37.396;-122.212;2023-02-28T16:45:39;8.45;;;2.38;;
50531;SDS011;36483;37.396;-122.212;2023-02-28T16:48:07;12.38;;;2.20;;
50531;SDS011;36483;37.396;-122.212;2023-02-28T16:50:36;20.67;;;2.60;;
50531;SDS011;36483;37.396;-122.212;2023-02-28T16:53:02;12.25;;;2.33;;
50531;SDS011;36483;37.396;-122.212;2023-02-28T16:55:28;15.20;;;2.38;;
50531;SDS011;36483;37.396;-122.212;2023-02-28T16:57:59;14.13;;;2.42;;
50531;SDS011;36483;37.396;-122.212;2023-02-28T17:00:26;11.77;;;1.98;;
50531;SDS011;36483;37.396;-122.212;2023-02-28T17:02:53;14.43;;;2.22;;
50531;SDS011;36483;37.396;-122.212;2023-02-28T17:05:20;11.40;;;2.30;;
50531;SDS011;36483;37.396;-122.212;2023-02-28T17:07:47;9.77;;;2.10;;
50531;SDS011;36483;37.396;-122.212;2023-02-28T17:10:18;7.85;;;1.63;;
50531;SDS011;36483;37.396;-122.212;2023-02-28T17:12:46;16.50;;;2.63;;
50531;SDS011;36483;37.396;-122.212;2023-02-28T17:15:14;8.85;;;2.33;;
50531;SDS011;36483;37.396;-122.212;2023-02-28T17:17:41;11.35;;;2.20;;